Time;durP1;ratioP1;P1;durP2;ratioP2;P2;SDS_P1;SDS_P2;PMS_P1;PMS_P2;Temp;Humidity;BMP_temperature;BMP_pressure;BME280_temperature;BME280_humidity;BME280_pressure;Samples;Min_cycle;Max_cycle;Signal;HPM_P1;HPM_P2
2023/09/19 00:01:59;;;;;;;1.92;1.10;;;;;;;;;;4992549;28;20088;-73
2023/09/19 00:04:45;;;;;;;2.63;1.05;;;;;;;;;;4993414;28;20030;-76
2023/09/19 00:07:30;;;;;;;2.05;1.17;;;;;;;;;;4963332;28;20035;-76
2023/09/19 00:10:16;;;;;;;1.33;1.20;;;;;;;;;;5007920;28;20109;-76
2023/09/19 00:13:06;;;;;;;1.63;1.00;;;;;;;;;;4997424;28;20038;-77
2023/09/19 00:15:52;;;;;;;6.80;1.00;;;;;;;;;;5011201;28;20098;-78
2023/09/19 00:18:38;;;;;;;3.17;1.25;;;;;;;;;;5010900;28;20116;-63
2023/09/19 00:21:23;;;;;;;3.88;1.10;;;;;;;;;;4988433;28;20080;-72
2023/09/19 00:24:09;;;;;;;1.10;0.90;;;;;;;;;;4994876;28;20029;-70
2023/09/19 00:26:55;;;;;;;3.58;1.38;;;;;;;;;;4997171;28;20029;-70
2023/09/19 00:29:40;;;;;;;2.38;0.90;;;;;;;;;;4997292;28;20025;-70
2023/09/19 00:32:31;;;;;;;1.65;1.00;;;;;;;;;;5010909;28;20084;-69
2023/09/19 00:35:16;;;;;;;4.45;1.13;;;;;;;;;;4997574;28;20053;-70
2023/09/19 00:38:03;;;;;;;2.42;0.82;;;;;;;;;;5010642;28;20025;-73
2023/09/19 00:40:48;;;;;;;3.42;1.02;;;;;;;;;;4996938;28;20026;-64
2023/09/19 00:43:34;;;;;;;2.00;1.02;;;;;;;;;;4996988;28;20084;-65
2023/09/19 00:46:19;;;;;;;2.65;1.30;;;;;;;;;;5000734;28;20105;-64
2023/09/19 00:49:07;;;;;;;3.30;0.95;;;;;;;;;;4996911;28;20428;-65
2023/09/19 00:51:52;;;;;;;2.05;0.98;;;;;;;;;;4996524;28;20029;-65
2023/09/19 00:54:38;;;;;;;1.60;1.10;;;;;;;;;;5010111;28;20442;-73
2023/09/19 00:57:23;;;;;;;1.42;1.00;;;;;;;;;;4996672;28;20040;-74
2023/09/19 01:00:15;;;;;;;4.70;1.15;;;;;;;;;;4996397;28;20130;-72
2023/09/19 01:03:03;;;;;;;2.22;1.33;;;;;;;;;;4977230;28;20042;-76
2023/09/19 01:05:49;;;;;;;1.40;0.95;;;;;;;;;;4998560;28;20029;-75
2023/09/19 01:08:36;;;;;;;3.10;1.10;;;;;;;;;;5010149;28;20184;-75
2023/09/19 01:11:39;;;;;;;2.88;1.23;;;;;;;;;;4996393;28;20034;-75
2023/09/19 01:14:34;;;;;;;1.35;0.80;;;;;;;;;;5010089;28;20481;-71
2023/09/19 01:17:23;;;;;;;2.95;1.35;;;;;;;;;;4995770;28;20246;-64
2023/09/19 01:20:15;;;;;;;6.75;1.45;;;;;;;;;;5009458;28;20113;-64
2023/09/19 01:23:03;;;;;;;1.55;1.10;;;;;;;;;;5010029;28;20049;-66
2023/09/19 01:26:00;;;;;;;4.20;1.42;;;;;;;;;;4982585;28;20033;-64
2023/09/19 01:29:02;;;;;;;1.90;1.10;;;;;;;;;;4996062;28;20183;-65
2023/09/19 01:31:49;;;;;;;3.80;1.30;;;;;;;;;;5009479;28;20032;-75
2023/09/19 01:34:53;;;;;;;2.08;1.88;;;;;;;;;;4995999;28;20038;-73
2023/09/19 01:37:38;;;;;;;2.95;1.30;;;;;;;;;;4995877;28;20038;-68
2023/09/19 01:40:24;;;;;;;6.18;1.23;;;;;;;;;;4995783;28;20034;-71
2023/09/19 01:43:13;;;;;;;3.42;1.15;;;;;;;;;;5009349;28;20034;-70
2023/09/19 01:46:09;;;;;;;1.20;0.90;;;;;;;;;;4997473;28;20021;-70
2023/09/19 01:49:03;;;;;;;4.07;1.58;;;;;;;;;;5009407;28;20040;-71
2023/09/19 01:51:53;;;;;;;2.70;1.10;;;;;;;;;;4996920;28;20110;-73
2023/09/19 01:54:41;;;;;;;1.60;0.90;;;;;;;;;;5006743;28;20048;-77
2023/09/19 01:57:32;;;;;;;1.87;0.90;;;;;;;;;;4995493;28;20026;-77
2023/09/19 02:00:19;;;;;;;2.42;0.98;;;;;;;;;;4983400;28;20880;-76
2023/09/19 02:03:05;;;;;;;4.60;0.95;;;;;;;;;;4995695;28;20045;-75
2023/09/19 02:05:51;;;;;;;1.77;0.98;;;;;;;;;;4995439;28;20473;-77
2023/09/19 02:08:36;;;;;;;1.00;0.80;;;;;;;;;;4995117;28;20526;-76
2023/09/19 02:11:22;;;;;;;2.50;1.40;;;;;;;;;;5008350;28;20132;-70
2023/09/19 02:14:08;;;;;;;2.80;1.02;;;;;;;;;;5007532;28;20496;-69
2023/09/19 02:16:53;;;;;;;1.95;0.88;;;;;;;;;;5003238;28;20037;-71
2023/09/19 02:19:40;;;;;;;3.05;1.13;;;;;;;;;;5009286;28;20462;-70
2023/09/19 02:22:26;;;;;;;2.25;0.98;;;;;;;;;;5009105;28;20026;-70
2023/09/19 02:25:11;;;;;;;3.75;1.10;;;;;;;;;;5000855;28;20080;-69
2023/09/19 02:27:58;;;;;;;1.08;0.80;;;;;;;;;;5008685;28;20029;-67
2023/09/19 02:30:43;;;;;;;1.52;0.88;;;;;;;;;;5008028;28;20036;-68
2023/09/19 02:33:32;;;;;;;1.30;0.90;;;;;;;;;;5009283;28;20101;-70
2023/09/19 02:36:17;;;;;;;1.90;0.95;;;;;;;;;;4995196;28;20057;-68
2023/09/19 02:39:04;;;;;;;4.78;1.20;;;;;;;;;;5008913;28;20440;-69
2023/09/19 02:41:50;;;;;;;0.95;0.85;;;;;;;;;;5009160;28;20068;-69
2023/09/19 02:44:35;;;;;;;1.05;0.98;;;;;;;;;;5008924;28;20030;-73
2023/09/19 02:47:21;;;;;;;1.65;1.00;;;;;;;;;;4995376;28;20061;-71
2023/09/19 02:50:06;;;;;;;2.50;0.80;;;;;;;;;;5008226;28;20038;-76
2023/09/19 02:52:52;;;;;;;1.45;0.90;;;;;;;;;;5008291;28;20041;-78
2023/09/19 02:55:38;;;;;;;2.13;0.88;;;;;;;;;;5011700;28;20028;-75
2023/09/19 02:58:24;;;;;;;3.72;1.15;;;;;;;;;;5008246;28;20121;-74
2023/09/19 03:01:13;;;;;;;2.42;0.90;;;;;;;;;;5008062;28;20041;-76
2023/09/19 03:03:58;;;;;;;0.73;0.73;;;;;;;;;;5007648;28;20473;-64
2023/09/19 03:06:44;;;;;;;1.05;0.98;;;;;;;;;;5007564;28;20113;-74
2023/09/19 03:09:29;;;;;;;1.02;0.85;;;;;;;;;;4974903;28;20067;-74
2023/09/19 03:12:16;;;;;;;1.80;0.93;;;;;;;;;;4995979;28;20117;-74
2023/09/19 03:15:02;;;;;;;2.00;1.10;;;;;;;;;;5008247;28;20033;-74
2023/09/19 03:17:48;;;;;;;1.38;1.00;;;;;;;;;;4994607;28;20080;-75
2023/09/19 03:20:33;;;;;;;1.98;1.13;;;;;;;;;;5008035;28;20601;-74
2023/09/19 03:23:18;;;;;;;1.83;1.08;;;;;;;;;;5007701;28;20034;-67
2023/09/19 03:26:04;;;;;;;2.88;1.25;;;;;;;;;;4999105;28;20034;-69
2023/09/19 03:28:50;;;;;;;1.27;1.00;;;;;;;;;;4994360;28;20021;-69
2023/09/19 03:31:36;;;;;;;2.63;1.70;;;;;;;;;;4994071;28;20109;-70
2023/09/19 03:34:22;;;;;;;2.53;1.00;;;;;;;;;;4993899;28;20052;-70
2023/09/19 03:37:07;;;;;;;3.45;1.00;;;;;;;;;;4994494;28;20100;-69
2023/09/19 03:39:52;;;;;;;1.95;0.98;;;;;;;;;;4994464;28;20076;-76
2023/09/19 03:42:38;;;;;;;1.42;1.08;;;;;;;;;;5008966;28;20049;-74
2023/09/19 03:45:24;;;;;;;2.33;1.00;;;;;;;;;;5012119;28;20068;-70
2023/09/19 03:48:10;;;;;;;3.72;1.40;;;;;;;;;;4998053;28;20112;-70
2023/09/19 03:50:56;;;;;;;2.65;1.20;;;;;;;;;;4997619;28;20026;-69
2023/09/19 03:53:41;;;;;;;2.75;1.50;;;;;;;;;;5018196;28;20041;-69
2023/09/19 03:56:28;;;;;;;2.55;1.17;;;;;;;;;;5000071;28;20040;-70
2023/09/19 03:59:13;;;;;;;2.25;1.10;;;;;;;;;;5011324;28;20038;-69
2023/09/19 04:01:59;;;;;;;1.20;1.08;;;;;;;;;;5010994;28;20033;-71
2023/09/19 04:04:44;;;;;;;3.13;1.02;;;;;;;;;;5008911;28;20456;-72
2023/09/19 04:07:29;;;;;;;2.05;0.93;;;;;;;;;;5008587;28;20060;-72
2023/09/19 04:10:15;;;;;;;1.25;1.15;;;;;;;;;;5007926;28;20045;-72
2023/09/19 04:13:03;;;;;;;3.67;1.30;;;;;;;;;;4995137;28;20108;-72
2023/09/19 04:15:49;;;;;;;3.08;1.63;;;;;;;;;;5008775;28;20037;-71
2023/09/19 04:18:37;;;;;;;3.10;1.15;;;;;;;;;;4994889;28;20030;-73
2023/09/19 04:21:22;;;;;;;3.55;1.27;;;;;;;;;;5011447;28;20029;-74
2023/09/19 04:24:08;;;;;;;1.48;1.13;;;;;;;;;;4995852;28;20777;-73
2023/09/19 04:26:53;;;;;;;1.27;1.00;;;;;;;;;;4993679;28;20038;-76
2023/09/19 04:29:39;;;;;;;1.67;1.08;;;;;;;;;;5010831;28;20091;-74
2023/09/19 04:32:28;;;;;;;5.43;1.55;;;;;;;;;;5010849;28;20041;-74
2023/09/19 04:35:13;;;;;;;2.00;1.40;;;;;;;;;;4997533;28;20603;-73
2023/09/19 04:37:58;;;;;;;3.50;1.48;;;;;;;;;;4996913;28;20036;-66
2023/09/19 04:40:43;;;;;;;3.08;1.33;;;;;;;;;;4996542;28;20039;-74
2023/09/19 04:43:29;;;;;;;1.98;1.08;;;;;;;;;;5010216;28;20495;-71
2023/09/19 04:46:14;;;;;;;3.88;1.40;;;;;;;;;;4997068;28;20540;-72
2023/09/19 04:49:00;;;;;;;1.92;1.27;;;;;;;;;;4996987;28;20117;-70
2023/09/19 04:51:46;;;;;;;2.65;1.27;;;;;;;;;;4996903;28;20057;-71
2023/09/19 04:54:33;;;;;;;1.80;1.33;;;;;;;;;;5012050;28;20112;-76
2023/09/19 04:57:18;;;;;;;2.20;1.13;;;;;;;;;;5010684;28;20038;-75
2023/09/19 05:00:12;;;;;;;1.95;1.17;;;;;;;;;;4982282;28;20032;-77
2023/09/19 05:02:57;;;;;;;2.60;1.30;;;;;;;;;;4996591;28;20025;-74
2023/09/19 05:05:42;;;;;;;4.93;1.60;;;;;;;;;;5010224;28;20520;-75
2023/09/19 05:08:28;;;;;;;4.80;1.33;;;;;;;;;;4996734;28;20029;-73
2023/09/19 05:11:13;;;;;;;1.92;1.23;;;;;;;;;;5009988;28;20572;-74
2023/09/19 05:14:01;;;;;;;2.33;1.40;;;;;;;;;;5010105;28;20040;-76
2023/09/19 05:16:46;;;;;;;4.82;1.75;;;;;;;;;;5009858;28;20028;-70
2023/09/19 05:19:32;;;;;;;2.33;1.40;;;;;;;;;;4996385;28;20136;-72
2023/09/19 05:22:18;;;;;;;4.03;1.40;;;;;;;;;;4976733;28;20363;-69
2023/09/19 05:25:04;;;;;;;2.50;1.33;;;;;;;;;;4985994;28;20030;-70
2023/09/19 05:27:52;;;;;;;7.95;1.60;;;;;;;;;;5009594;28;20405;-71
2023/09/19 05:30:42;;;;;;;3.40;1.02;;;;;;;;;;5009301;28;20060;-75
2023/09/19 05:33:28;;;;;;;2.67;1.20;;;;;;;;;;4995892;28;20065;-69
2023/09/19 05:36:15;;;;;;;3.45;1.48;;;;;;;;;;5009431;28;20044;-70
2023/09/19 05:39:01;;;;;;;4.15;1.10;;;;;;;;;;5009726;28;20044;-71
2023/09/19 05:41:47;;;;;;;3.75;1.30;;;;;;;;;;4995699;28;20481;-69
2023/09/19 05:44:33;;;;;;;3.25;1.20;;;;;;;;;;5009482;28;20041;-69
2023/09/19 05:47:18;;;;;;;1.75;1.10;;;;;;;;;;5004747;28;20037;-69
2023/09/19 05:50:05;;;;;;;3.83;1.20;;;;;;;;;;5009448;28;20038;-65
2023/09/19 05:52:55;;;;;;;2.85;1.40;;;;;;;;;;5009353;28;20034;-69
2023/09/19 05:55:41;;;;;;;2.78;1.20;;;;;;;;;;4994844;28;20050;-69
2023/09/19 05:58:26;;;;;;;3.25;1.38;;;;;;;;;;5009308;28;20037;-69
2023/09/19 06:01:12;;;;;;;2.15;1.30;;;;;;;;;;4995509;28;20041;-71
2023/09/19 06:03:57;;;;;;;2.60;1.23;;;;;;;;;;5009277;28;20354;-68
2023/09/19 06:06:42;;;;;;;3.65;1.35;;;;;;;;;;5009532;28;20036;-69
2023/09/19 06:09:27;;;;;;;4.40;1.85;;;;;;;;;;5009064;28;20354;-73
2023/09/19 06:12:15;;;;;;;4.85;1.45;;;;;;;;;;4994730;28;20029;-75
2023/09/19 06:15:00;;;;;;;5.53;1.42;;;;;;;;;;5008776;28;20038;-75
2023/09/19 06:17:49;;;;;;;3.80;1.55;;;;;;;;;;5000457;28;20030;-75
2023/09/19 06:20:35;;;;;;;1.55;1.20;;;;;;;;;;5008971;28;20100;-76
2023/09/19 06:23:21;;;;;;;4.75;1.80;;;;;;;;;;5008500;28;20396;-75
2023/09/19 06:26:06;;;;;;;2.85;1.77;;;;;;;;;;4986949;28;20033;-68
2023/09/19 06:28:52;;;;;;;2.25;1.58;;;;;;;;;;5008244;28;20030;-77
2023/09/19 06:31:38;;;;;;;3.05;1.63;;;;;;;;;;5008465;28;20061;-76
2023/09/19 06:34:25;;;;;;;4.03;1.40;;;;;;;;;;5008552;28;20132;-75
2023/09/19 06:37:11;;;;;;;2.65;1.45;;;;;;;;;;5008860;28;20225;-76
2023/09/19 06:39:56;;;;;;;2.08;1.00;;;;;;;;;;5008558;28;20037;-75
2023/09/19 06:42:46;;;;;;;2.42;1.30;;;;;;;;;;5008661;28;20045;-75
2023/09/19 06:45:31;;;;;;;3.28;1.30;;;;;;;;;;5008814;28;20040;-74
2023/09/19 06:48:18;;;;;;;2.30;1.52;;;;;;;;;;4992207;28;20030;-68
2023/09/19 06:51:05;;;;;;;2.95;1.60;;;;;;;;;;5005538;28;20038;-67
2023/09/19 06:53:54;;;;;;;9.63;2.08;;;;;;;;;;4999969;28;20111;-66
2023/09/19 06:56:41;;;;;;;2.60;1.55;;;;;;;;;;4992454;28;20031;-66
2023/09/19 06:59:26;;;;;;;1.60;1.15;;;;;;;;;;5005731;28;20699;-68
2023/09/19 07:02:13;;;;;;;2.83;1.70;;;;;;;;;;5005673;28;20129;-67
2023/09/19 07:04:58;;;;;;;2.05;1.52;;;;;;;;;;5007759;28;20034;-75
2023/09/19 07:07:45;;;;;;;3.72;1.50;;;;;;;;;;5008346;28;20445;-70
2023/09/19 07:10:30;;;;;;;3.58;1.60;;;;;;;;;;5007987;28;20042;-70
2023/09/19 07:13:17;;;;;;;2.20;1.40;;;;;;;;;;5008113;28;20041;-70
2023/09/19 07:16:02;;;;;;;4.40;2.03;;;;;;;;;;4994672;28;20022;-70
2023/09/19 07:18:47;;;;;;;3.10;1.90;;;;;;;;;;5000049;28;20438;-69
2023/09/19 07:21:32;;;;;;;3.03;1.55;;;;;;;;;;5014854;28;20357;-68
2023/09/19 07:24:18;;;;;;;4.10;1.85;;;;;;;;;;5011816;28;20040;-75
2023/09/19 07:27:05;;;;;;;5.55;1.48;;;;;;;;;;4998442;28;20022;-76
2023/09/19 07:29:50;;;;;;;3.10;1.42;;;;;;;;;;5000824;28;20032;-75
2023/09/19 07:32:38;;;;;;;6.05;1.98;;;;;;;;;;5000897;28;20080;-76
2023/09/19 07:35:23;;;;;;;2.33;1.38;;;;;;;;;;4985489;28;20049;-75
2023/09/19 07:38:11;;;;;;;3.92;2.20;;;;;;;;;;4988107;28;20036;-75
2023/09/19 07:41:00;;;;;;;5.35;1.80;;;;;;;;;;5013855;28;20481;-74
2023/09/19 07:43:45;;;;;;;3.08;1.83;;;;;;;;;;5014232;28;20589;-74
2023/09/19 07:46:31;;;;;;;5.22;1.35;;;;;;;;;;5015498;28;20034;-74
2023/09/19 07:49:17;;;;;;;2.45;1.35;;;;;;;;;;5000870;28;20045;-74
2023/09/19 07:52:03;;;;;;;4.72;1.67;;;;;;;;;;5014084;28;20042;-75
2023/09/19 07:54:49;;;;;;;2.00;1.10;;;;;;;;;;5011787;28;20586;-74
2023/09/19 07:57:37;;;;;;;4.95;2.63;;;;;;;;;;5000266;28;20037;-74
2023/09/19 08:00:22;;;;;;;2.22;1.45;;;;;;;;;;5000497;28;20056;-74
2023/09/19 08:03:08;;;;;;;6.68;1.95;;;;;;;;;;5000492;28;20481;-67
2023/09/19 08:05:55;;;;;;;5.28;2.03;;;;;;;;;;5000699;28;20116;-69
2023/09/19 08:08:41;;;;;;;3.33;1.55;;;;;;;;;;5014511;28;20038;-69
2023/09/19 08:11:30;;;;;;;3.47;1.60;;;;;;;;;;5000015;28;20104;-68
2023/09/19 08:14:15;;;;;;;3.90;1.50;;;;;;;;;;5014379;28;20049;-68
2023/09/19 08:17:01;;;;;;;2.60;1.30;;;;;;;;;;5013635;28;20030;-74
2023/09/19 08:19:46;;;;;;;2.22;1.40;;;;;;;;;;5014261;28;20076;-75
2023/09/19 08:22:32;;;;;;;7.55;1.67;;;;;;;;;;5000561;28;20030;-75
2023/09/19 08:25:20;;;;;;;2.45;1.63;;;;;;;;;;5005967;28;20026;-74
2023/09/19 08:28:08;;;;;;;2.92;1.40;;;;;;;;;;5014233;28;20069;-73
2023/09/19 08:30:54;;;;;;;3.80;1.55;;;;;;;;;;5010091;28;20041;-74
2023/09/19 08:33:40;;;;;;;4.47;1.40;;;;;;;;;;4997606;28;20034;-74
2023/09/19 08:36:26;;;;;;;2.67;1.20;;;;;;;;;;4977429;28;20030;-71
2023/09/19 08:39:11;;;;;;;2.15;1.00;;;;;;;;;;5006357;28;20073;-75
2023/09/19 08:42:00;;;;;;;1.67;1.10;;;;;;;;;;5010824;28;20041;-74
2023/09/19 08:44:46;;;;;;;5.70;1.80;;;;;;;;;;4997026;28;20025;-77
2023/09/19 08:47:38;;;;;;;2.17;1.20;;;;;;;;;;4998462;28;20579;-75
2023/09/19 08:50:26;;;;;;;3.05;1.10;;;;;;;;;;5010819;28;20041;-75
2023/09/19 08:53:15;;;;;;;2.65;1.30;;;;;;;;;;5013104;28;20436;-66
2023/09/19 08:56:03;;;;;;;5.80;1.60;;;;;;;;;;5002435;28;20088;-75
2023/09/19 08:58:54;;;;;;;2.83;1.20;;;;;;;;;;4980469;28;20030;-74
2023/09/19 09:01:41;;;;;;;3.25;1.45;;;;;;;;;;5009020;28;20034;-75
2023/09/19 09:04:26;;;;;;;2.20;1.20;;;;;;;;;;4977239;28;20030;-75
2023/09/19 09:07:19;;;;;;;2.95;1.60;;;;;;;;;;4999086;28;20099;-77
2023/09/19 09:10:04;;;;;;;3.70;1.38;;;;;;;;;;5010047;28;20036;-74
2023/09/19 09:12:51;;;;;;;3.40;1.30;;;;;;;;;;5009898;28;20436;-67
2023/09/19 09:15:37;;;;;;;2.83;1.75;;;;;;;;;;4997505;28;20026;-69
2023/09/19 09:18:22;;;;;;;3.28;1.30;;;;;;;;;;4996374;28;20121;-70
2023/09/19 09:21:07;;;;;;;1.33;1.00;;;;;;;;;;4996549;28;20389;-70
2023/09/19 09:23:53;;;;;;;3.47;1.40;;;;;;;;;;5009713;28;20080;-69
2023/09/19 09:26:44;;;;;;;3.22;1.42;;;;;;;;;;4971174;28;20110;-69
2023/09/19 09:29:52;;;;;;;1.50;1.20;;;;;;;;;;4996293;28;20040;-73
2023/09/19 09:32:39;;;;;;;2.92;1.40;;;;;;;;;;4996044;28;20056;-69
2023/09/19 09:35:24;;;;;;;4.50;1.60;;;;;;;;;;5010999;28;20038;-70
2023/09/19 09:38:10;;;;;;;3.22;1.50;;;;;;;;;;4977942;28;20492;-70
2023/09/19 09:43:46;;;;;;;2.65;1.35;;;;;;;;;;4995721;28;20038;-73
2023/09/19 09:46:58;;;;;;;3.30;1.50;;;;;;;;;;4982916;28;20040;-73
2023/09/19 09:49:50;;;;;;;1.80;1.45;;;;;;;;;;5009333;28;20030;-68
2023/09/19 09:52:46;;;;;;;2.72;1.58;;;;;;;;;;4995518;28;20046;-73
2023/09/19 09:55:51;;;;;;;2.17;1.27;;;;;;;;;;5019310;28;20100;-76
2023/09/19 09:58:40;;;;;;;2.38;1.23;;;;;;;;;;4995079;28;20034;-75
2023/09/19 10:01:26;;;;;;;2.47;1.55;;;;;;;;;;5008706;28;20030;-76
2023/09/19 10:04:28;;;;;;;4.80;1.75;;;;;;;;;;4995317;28;20049;-77
2023/09/19 10:07:24;;;;;;;3.20;1.75;;;;;;;;;;5009131;28;20029;-76
2023/09/19 10:10:21;;;;;;;2.90;1.60;;;;;;;;;;4995182;28;20021;-66
2023/09/19 10:13:07;;;;;;;3.15;1.75;;;;;;;;;;5009116;28;20096;-66
2023/09/19 10:15:54;;;;;;;2.00;1.20;;;;;;;;;;5007112;28;20493;-67
2023/09/19 10:18:41;;;;;;;5.78;1.73;;;;;;;;;;4992854;28;20051;-67
2023/09/19 10:21:29;;;;;;;3.17;1.30;;;;;;;;;;4973391;28;20448;-68
2023/09/19 10:24:16;;;;;;;2.38;1.50;;;;;;;;;;4994824;28;20049;-65
2023/09/19 10:27:03;;;;;;;2.35;1.48;;;;;;;;;;5006470;28;20037;-74
2023/09/19 10:29:50;;;;;;;3.88;1.65;;;;;;;;;;4995035;28;20080;-71
2023/09/19 10:32:39;;;;;;;4.70;1.88;;;;;;;;;;5007431;28;20037;-73
2023/09/19 10:35:25;;;;;;;2.22;1.38;;;;;;;;;;4992386;28;20562;-72
2023/09/19 10:38:11;;;;;;;3.72;1.25;;;;;;;;;;4994205;28;20064;-71
2023/09/19 10:41:00;;;;;;;4.22;1.40;;;;;;;;;;4994495;28;20424;-71
2023/09/19 10:43:46;;;;;;;5.28;1.52;;;;;;;;;;5008569;28;20189;-76
2023/09/19 10:46:32;;;;;;;3.88;1.20;;;;;;;;;;4995468;28;20045;-67
2023/09/19 10:49:18;;;;;;;5.53;1.60;;;;;;;;;;4994756;28;20041;-69
2023/09/19 10:52:08;;;;;;;3.47;1.33;;;;;;;;;;5007383;28;20119;-69
2023/09/19 10:54:57;;;;;;;1.98;1.50;;;;;;;;;;5019742;28;20032;-67
2023/09/19 10:57:44;;;;;;;2.13;1.52;;;;;;;;;;5008269;28;20425;-67
2023/09/19 11:00:34;;;;;;;2.08;1.50;;;;;;;;;;4993932;28;20661;-65
2023/09/19 11:03:22;;;;;;;2.55;1.33;;;;;;;;;;4994134;28;20026;-64
2023/09/19 11:06:12;;;;;;;3.75;1.20;;;;;;;;;;4994166;28;20163;-77
2023/09/19 11:11:57;;;;;;;2.47;1.20;;;;;;;;;;5006723;28;20030;-76
2023/09/19 11:14:44;;;;;;;4.00;1.55;;;;;;;;;;4994673;28;20107;-76
2023/09/19 11:17:33;;;;;;;3.70;1.45;;;;;;;;;;5007678;28;20056;-75
2023/09/19 11:20:24;;;;;;;1.70;1.13;;;;;;;;;;5007340;28;20057;-72
2023/09/19 11:23:17;;;;;;;3.25;1.42;;;;;;;;;;4993751;28;20041;-74
2023/09/19 11:26:02;;;;;;;3.30;1.50;;;;;;;;;;4999162;28;20045;-74
2023/09/19 11:29:10;;;;;;;2.38;1.25;;;;;;;;;;5005924;28;20477;-72
2023/09/19 11:31:56;;;;;;;7.90;1.60;;;;;;;;;;4993567;28;20473;-74
2023/09/19 11:34:44;;;;;;;2.60;1.30;;;;;;;;;;5007309;28;20532;-73
2023/09/19 11:37:32;;;;;;;1.40;1.30;;;;;;;;;;4994166;28;20444;-74
2023/09/19 11:40:18;;;;;;;2.00;1.33;;;;;;;;;;4994685;28;20041;-75
2023/09/19 11:43:23;;;;;;;2.13;1.00;;;;;;;;;;4994300;28;20041;-70
2023/09/19 11:46:09;;;;;;;1.83;1.20;;;;;;;;;;4995640;28;20034;-69
2023/09/19 11:48:56;;;;;;;2.85;1.30;;;;;;;;;;4994085;28;20472;-69
2023/09/19 11:51:45;;;;;;;1.60;1.30;;;;;;;;;;4994148;28;20046;-71
2023/09/19 11:54:33;;;;;;;2.58;1.33;;;;;;;;;;5005654;28;20041;-68
2023/09/19 11:57:20;;;;;;;3.17;1.40;;;;;;;;;;5007879;28;20059;-65
2023/09/19 12:00:10;;;;;;;2.97;1.40;;;;;;;;;;4993913;28;20032;-75
2023/09/19 12:03:00;;;;;;;2.83;1.50;;;;;;;;;;4980387;28;20492;-73
2023/09/19 12:05:46;;;;;;;1.80;1.15;;;;;;;;;;4979008;28;20343;-73
2023/09/19 12:08:32;;;;;;;3.72;1.83;;;;;;;;;;5010906;28;20042;-74
2023/09/19 12:11:19;;;;;;;3.58;1.35;;;;;;;;;;4997842;28;20092;-73
2023/09/19 12:14:06;;;;;;;3.65;1.42;;;;;;;;;;5011682;28;20113;-74
2023/09/19 12:16:55;;;;;;;1.85;1.20;;;;;;;;;;5010055;28;20109;-66
2023/09/19 12:19:50;;;;;;;2.58;1.55;;;;;;;;;;4997588;28;20030;-74
2023/09/19 12:22:43;;;;;;;3.22;1.42;;;;;;;;;;4998031;28;20072;-74
2023/09/19 12:25:40;;;;;;;5.40;1.35;;;;;;;;;;4990043;28;20119;-74
2023/09/19 12:28:26;;;;;;;4.28;1.40;;;;;;;;;;5011572;28;20173;-75
2023/09/19 12:31:12;;;;;;;1.35;1.10;;;;;;;;;;5011155;28;20105;-75
2023/09/19 12:33:58;;;;;;;2.35;1.23;;;;;;;;;;5011382;28;20109;-77
2023/09/19 12:36:44;;;;;;;2.72;1.20;;;;;;;;;;5008833;28;20037;-72
2023/09/19 12:39:29;;;;;;;3.53;1.25;;;;;;;;;;5010303;28;20026;-71
2023/09/19 12:42:15;;;;;;;3.42;1.52;;;;;;;;;;5010028;28;20080;-71
2023/09/19 12:45:01;;;;;;;2.45;1.30;;;;;;;;;;5009955;28;20443;-72
2023/09/19 12:48:12;;;;;;;3.17;1.40;;;;;;;;;;4997385;28;20033;-71
2023/09/19 12:51:05;;;;;;;2.05;1.33;;;;;;;;;;4981181;28;20037;-73
2023/09/19 12:53:56;;;;;;;2.33;1.50;;;;;;;;;;5003843;28;20030;-69
2023/09/19 12:56:47;;;;;;;3.50;1.50;;;;;;;;;;4995779;28;20038;-75
2023/09/19 12:59:32;;;;;;;1.88;1.13;;;;;;;;;;4996609;28;20177;-76
2023/09/19 13:02:23;;;;;;;2.22;1.30;;;;;;;;;;4996835;28;20104;-74
2023/09/19 13:05:10;;;;;;;3.72;2.17;;;;;;;;;;5010346;28;20065;-75
2023/09/19 13:07:55;;;;;;;2.13;1.10;;;;;;;;;;4996991;28;20410;-77
2023/09/19 13:11:20;;;;;;;2.40;1.65;;;;;;;;;;4996021;28;20258;-75
2023/09/19 13:14:21;;;;;;;2.47;1.50;;;;;;;;;;4929146;29;20038;-74
2023/09/19 13:17:16;;;;;;;3.17;1.35;;;;;;;;;;4929029;29;20042;-75
2023/09/19 13:20:02;;;;;;;5.15;1.70;;;;;;;;;;4929453;29;20028;-77
2023/09/19 13:22:54;;;;;;;4.97;1.73;;;;;;;;;;4929613;29;20437;-75
2023/09/19 13:25:40;;;;;;;1.95;1.40;;;;;;;;;;4929281;29;20035;-75
2023/09/19 13:28:25;;;;;;;1.77;1.30;;;;;;;;;;4917068;29;20423;-74
2023/09/19 13:31:13;;;;;;;4.68;1.58;;;;;;;;;;4929707;29;20044;-74
2023/09/19 13:33:59;;;;;;;4.15;1.30;;;;;;;;;;4917384;29;20087;-71
2023/09/19 13:36:44;;;;;;;1.50;1.33;;;;;;;;;;4917250;29;20040;-71
2023/09/19 13:39:30;;;;;;;2.83;1.48;;;;;;;;;;4930506;29;20020;-69
2023/09/19 13:42:16;;;;;;;3.00;1.38;;;;;;;;;;4930276;29;20070;-70
2023/09/19 13:45:04;;;;;;;3.95;1.60;;;;;;;;;;4971883;28;20034;-70
2023/09/19 13:47:50;;;;;;;2.30;1.53;;;;;;;;;;4996940;28;20038;-68
2023/09/19 13:50:36;;;;;;;3.25;1.45;;;;;;;;;;4995084;28;20034;-71
2023/09/19 13:53:21;;;;;;;3.50;1.40;;;;;;;;;;5013404;28;20045;-73
2023/09/19 13:56:07;;;;;;;1.88;1.40;;;;;;;;;;5001301;28;20034;-68
2023/09/19 13:58:53;;;;;;;3.45;1.30;;;;;;;;;;5008960;28;20072;-71
2023/09/19 14:01:39;;;;;;;2.80;1.45;;;;;;;;;;4995192;28;20493;-68
2023/09/19 14:04:24;;;;;;;3.58;1.52;;;;;;;;;;5009366;28;20034;-68
2023/09/19 14:07:10;;;;;;;2.03;1.50;;;;;;;;;;5008269;28;20025;-76
2023/09/19 14:09:56;;;;;;;2.97;1.48;;;;;;;;;;5006716;28;20033;-70
2023/09/19 14:12:44;;;;;;;2.25;1.55;;;;;;;;;;5008459;28;20073;-71
2023/09/19 14:15:30;;;;;;;4.78;1.73;;;;;;;;;;5008498;28;20041;-71
2023/09/19 14:18:15;;;;;;;1.70;1.33;;;;;;;;;;4990264;28;20038;-71
2023/09/19 14:21:04;;;;;;;1.60;1.25;;;;;;;;;;4994899;28;20033;-73
2023/09/19 14:23:49;;;;;;;1.95;1.50;;;;;;;;;;4995071;28;20026;-64
2023/09/19 14:26:38;;;;;;;3.22;1.83;;;;;;;;;;4993758;28;20029;-70
2023/09/19 14:29:23;;;;;;;4.53;1.40;;;;;;;;;;4995617;28;20436;-77
2023/09/19 14:32:08;;;;;;;1.90;1.10;;;;;;;;;;5006119;28;20125;-76
2023/09/19 14:34:53;;;;;;;3.75;1.67;;;;;;;;;;5005640;28;20549;-75
2023/09/19 14:37:39;;;;;;;1.90;1.48;;;;;;;;;;4992011;28;20120;-75
2023/09/19 14:40:25;;;;;;;3.63;1.50;;;;;;;;;;4992162;28;20510;-76
2023/09/19 14:43:10;;;;;;;2.50;1.50;;;;;;;;;;5006498;28;20068;-70
2023/09/19 14:46:02;;;;;;;2.53;1.20;;;;;;;;;;4995239;28;20045;-75
2023/09/19 14:48:48;;;;;;;2.38;1.55;;;;;;;;;;4994659;28;20029;-75
2023/09/19 14:51:33;;;;;;;2.72;1.65;;;;;;;;;;5007797;28;20042;-74
2023/09/19 14:54:18;;;;;;;3.45;1.70;;;;;;;;;;4991966;28;20523;-75
2023/09/19 14:57:04;;;;;;;3.83;1.45;;;;;;;;;;4983524;28;20041;-74
2023/09/19 14:59:50;;;;;;;5.38;1.83;;;;;;;;;;4993878;28;20496;-75
2023/09/19 15:02:35;;;;;;;4.72;1.52;;;;;;;;;;5000795;28;20044;-70
2023/09/19 15:05:21;;;;;;;1.75;1.30;;;;;;;;;;4994075;28;20048;-71
2023/09/19 15:08:06;;;;;;;2.95;1.58;;;;;;;;;;4980683;28;20064;-71
2023/09/19 15:10:52;;;;;;;2.72;1.80;;;;;;;;;;5007810;28;20506;-71
2023/09/19 15:13:38;;;;;;;1.83;1.30;;;;;;;;;;4979329;28;20113;-73
2023/09/19 15:16:23;;;;;;;1.80;1.25;;;;;;;;;;4994301;28;20026;-70
2023/09/19 15:19:10;;;;;;;1.75;1.40;;;;;;;;;;4983540;28;20505;-75
2023/09/19 15:21:55;;;;;;;5.00;1.50;;;;;;;;;;5006816;28;20033;-68
2023/09/19 15:24:40;;;;;;;1.60;1.30;;;;;;;;;;5001246;28;20050;-74
2023/09/19 15:27:26;;;;;;;2.53;1.50;;;;;;;;;;4981287;28;20417;-76
2023/09/19 15:30:11;;;;;;;2.60;1.60;;;;;;;;;;5007475;28;20108;-75
2023/09/19 15:32:56;;;;;;;2.05;1.23;;;;;;;;;;5007317;28;20097;-75
2023/09/19 15:35:42;;;;;;;2.70;1.60;;;;;;;;;;5007789;28;20125;-75
2023/09/19 15:38:28;;;;;;;4.32;1.40;;;;;;;;;;5008805;28;20037;-74
2023/09/19 15:41:13;;;;;;;3.80;1.85;;;;;;;;;;5010409;28;20030;-74
2023/09/19 15:44:00;;;;;;;3.83;1.52;;;;;;;;;;5011042;28;20105;-74
2023/09/19 15:46:46;;;;;;;1.65;1.20;;;;;;;;;;4999447;28;20034;-74
2023/09/19 15:49:31;;;;;;;3.22;1.50;;;;;;;;;;4981387;28;20042;-74
2023/09/19 15:52:17;;;;;;;2.95;1.25;;;;;;;;;;5008995;28;20026;-74
2023/09/19 15:55:03;;;;;;;3.35;1.10;;;;;;;;;;5020149;28;20037;-74
2023/09/19 15:57:48;;;;;;;4.50;1.70;;;;;;;;;;4996990;28;20026;-74
2023/09/19 16:00:36;;;;;;;4.03;1.30;;;;;;;;;;5011787;28;20116;-69
2023/09/19 16:03:24;;;;;;;3.90;1.60;;;;;;;;;;4997131;28;20034;-69
2023/09/19 16:06:13;;;;;;;2.30;1.60;;;;;;;;;;5011107;28;20046;-72
2023/09/19 16:08:58;;;;;;;3.10;1.60;;;;;;;;;;5010714;28;20061;-71
2023/09/19 16:11:44;;;;;;;10.35;2.00;;;;;;;;;;5010466;28;20030;-72
2023/09/19 16:14:30;;;;;;;2.60;1.67;;;;;;;;;;5011576;28;20033;-74
2023/09/19 16:17:17;;;;;;;1.60;1.10;;;;;;;;;;4977614;28;20101;-71
2023/09/19 16:20:02;;;;;;;2.28;1.20;;;;;;;;;;5007601;28;20030;-71
2023/09/19 16:22:47;;;;;;;2.75;1.52;;;;;;;;;;5011043;28;20026;-70
2023/09/19 16:25:32;;;;;;;2.33;1.23;;;;;;;;;;4989520;28;20077;-69
2023/09/19 16:28:18;;;;;;;2.40;1.35;;;;;;;;;;5011115;28;20092;-70
2023/09/19 16:31:06;;;;;;;4.93;1.95;;;;;;;;;;4996680;28;20030;-69
2023/09/19 16:33:52;;;;;;;3.08;1.90;;;;;;;;;;4996947;28;20038;-71
2023/09/19 16:36:38;;;;;;;2.25;1.40;;;;;;;;;;5010801;28;20038;-71
2023/09/19 16:39:23;;;;;;;2.83;1.40;;;;;;;;;;5010815;28;20397;-70
2023/09/19 16:42:10;;;;;;;2.75;1.85;;;;;;;;;;5010593;28;20038;-70
2023/09/19 16:44:55;;;;;;;2.08;1.30;;;;;;;;;;4984110;28;20033;-71
2023/09/19 16:47:41;;;;;;;3.10;1.52;;;;;;;;;;4998251;28;20500;-70
2023/09/19 16:50:26;;;;;;;1.85;1.40;;;;;;;;;;5009867;28;20046;-71